Time;durP1;ratioP1;P1;durP2;ratioP2;P2;SDS_P1;SDS_P2;PMS_P1;PMS_P2;Temp;Humidity;BMP_temperature;BMP_pressure;BME280_temperature;BME280_humidity;BME280_pressure;Samples;Min_cycle;Max_cycle;Signal;HPM_P1;HPM_P2
2023/10/19 00:02:05;;;;;;;0.25;0.25;;;9.60;99.90;;;;;;5002065;28;20049;-65
2023/10/19 00:04:35;;;;;;;0.25;0.25;;;9.60;99.90;;;;;;5005683;28;20045;-65
2023/10/19 00:07:06;;;;;;;1.25;1.20;;;9.60;99.90;;;;;;5000225;28;20133;-65
2023/10/19 00:09:37;;;;;;;1.33;1.23;;;9.70;99.90;;;;;;5002518;28;20046;-65
2023/10/19 00:12:08;;;;;;;0.20;0.20;;;9.50;99.90;;;;;;5007937;28;20041;-65
2023/10/19 00:14:35;;;;;;;1.10;0.73;;;9.50;99.90;;;;;;5001268;28;20081;-65
2023/10/19 00:17:05;;;;;;;0.70;0.70;;;9.60;99.90;;;;;;5001129;28;20046;-65
2023/10/19 00:19:31;;;;;;;0.10;0.10;;;9.50;99.90;;;;;;4999855;28;20082;-65
2023/10/19 00:22:08;;;;;;;0.73;0.73;;;9.50;99.90;;;;;;5003173;28;20124;-65
2023/10/19 00:24:34;;;;;;;0.65;0.65;;;9.50;99.90;;;;;;5003049;28;20089;-65
2023/10/19 00:27:14;;;;;;;0.57;0.57;;;9.50;99.90;;;;;;5001812;28;20049;-65
2023/10/19 00:29:41;;;;;;;0.40;0.40;;;9.50;99.90;;;;;;5001187;28;20108;-65
2023/10/19 00:32:12;;;;;;;0.28;0.28;;;9.50;99.90;;;;;;5003913;28;20077;-65
2023/10/19 00:34:38;;;;;;;0.20;0.20;;;9.50;99.90;;;;;;4996298;28;20076;-64
2023/10/19 00:37:07;;;;;;;0.65;0.63;;;9.50;99.90;;;;;;5003772;28;20121;-65
2023/10/19 00:39:48;;;;;;;2.72;0.82;;;9.50;99.90;;;;;;5002459;28;20162;-64
2023/10/19 00:42:15;;;;;;;0.17;0.17;;;9.50;99.90;;;;;;4994004;28;20046;-64
2023/10/19 00:44:49;;;;;;;0.20;0.20;;;9.60;99.90;;;;;;4998874;28;20478;-64
2023/10/19 00:47:18;;;;;;;0.55;0.55;;;9.50;99.90;;;;;;5004908;28;20046;-64
2023/10/19 00:49:46;;;;;;;0.15;0.15;;;9.40;99.90;;;;;;5004380;28;20128;-65
2023/10/19 00:52:16;;;;;;;0.10;0.10;;;9.40;99.90;;;;;;5002279;28;20453;-65
2023/10/19 00:57:19;;;;;;;0.30;0.30;;;9.40;99.90;;;;;;5004941;28;20065;-64
2023/10/19 00:59:51;;;;;;;1.88;1.20;;;9.40;99.90;;;;;;5002593;28;20046;-65
2023/10/19 01:02:43;;;;;;;0.10;0.10;;;9.40;99.90;;;;;;5000125;28;20050;-64
2023/10/19 01:05:06;;;;;;;5.03;1.90;;;9.40;99.90;;;;;;5001793;28;20051;-65
2023/10/19 01:07:38;;;;;;;0.50;0.50;;;9.40;99.90;;;;;;5004398;28;20046;-65
2023/10/19 01:10:06;;;;;;;0.95;0.95;;;9.50;99.90;;;;;;5004103;28;20134;-65
2023/10/19 01:15:16;;;;;;;0.30;0.30;;;9.40;99.90;;;;;;5011559;28;20057;-64
2023/10/19 01:17:44;;;;;;;0.43;0.43;;;9.40;99.90;;;;;;5004440;28;20065;-64
2023/10/19 01:20:18;;;;;;;2.70;1.83;;;9.40;99.90;;;;;;5008921;28;20460;-64
2023/10/19 01:22:53;;;;;;;1.52;1.38;;;9.40;99.90;;;;;;5002725;28;20042;-65
2023/10/19 01:25:33;;;;;;;0.10;0.10;;;9.40;99.90;;;;;;5010055;28;20054;-64
2023/10/19 01:28:00;;;;;;;0.28;0.28;;;9.50;99.90;;;;;;5008565;28;20430;-64
2023/10/19 01:30:27;;;;;;;0.93;0.93;;;9.50;99.90;;;;;;5003390;28;20532;-64
2023/10/19 01:32:52;;;;;;;0.73;0.70;;;9.40;99.90;;;;;;5011181;28;20051;-65
2023/10/19 01:35:18;;;;;;;4.88;2.17;;;9.40;99.90;;;;;;5005759;28;20050;-64
2023/10/19 01:37:44;;;;;;;0.43;0.40;;;9.40;99.90;;;;;;5007641;28;20026;-65
2023/10/19 01:40:11;;;;;;;1.70;1.58;;;9.40;99.90;;;;;;5011723;28;20498;-64
2023/10/19 01:42:37;;;;;;;0.63;0.63;;;9.40;99.90;;;;;;5007028;28;20446;-64
2023/10/19 01:45:05;;;;;;;1.30;0.88;;;9.40;99.90;;;;;;5011845;28;20049;-65
2023/10/19 01:47:32;;;;;;;0.93;0.93;;;9.30;99.90;;;;;;5005192;28;20081;-64
2023/10/19 01:49:57;;;;;;;0.57;0.57;;;9.40;99.90;;;;;;5005120;28;20065;-64
2023/10/19 01:52:24;;;;;;;0.73;0.73;;;9.40;99.90;;;;;;5010727;28;20049;-65
2023/10/19 01:54:58;;;;;;;0.10;0.10;;;9.40;99.90;;;;;;5009438;28;20054;-65
2023/10/19 01:57:25;;;;;;;0.82;0.82;;;9.40;99.90;;;;;;5006900;28;20057;-65
2023/10/19 01:59:51;;;;;;;0.10;0.10;;;9.30;99.90;;;;;;5010039;28;21316;-65
2023/10/19 02:02:16;;;;;;;1.05;1.05;;;9.30;99.90;;;;;;5009552;28;20038;-65
2023/10/19 02:04:42;;;;;;;0.10;0.10;;;9.40;99.90;;;;;;5005683;28;20041;-65
2023/10/19 02:07:13;;;;;;;0.10;0.10;;;9.40;99.90;;;;;;5003516;28;20053;-65
2023/10/19 02:09:39;;;;;;;0.10;0.10;;;9.40;99.90;;;;;;5019348;28;20150;-65
2023/10/19 02:12:07;;;;;;;0.10;0.10;;;9.40;99.90;;;;;;5009993;28;20042;-65
2023/10/19 02:14:33;;;;;;;0.82;0.80;;;9.40;99.90;;;;;;5010451;28;20042;-65
2023/10/19 02:17:00;;;;;;;0.28;0.28;;;9.40;99.90;;;;;;5005009;28;20065;-65
2023/10/19 02:19:27;;;;;;;0.50;0.30;;;9.40;99.90;;;;;;5010463;28;20034;-65
2023/10/19 02:21:58;;;;;;;0.68;0.63;;;9.40;99.90;;;;;;5010287;28;20441;-65
2023/10/19 02:24:25;;;;;;;0.68;0.68;;;9.40;99.90;;;;;;5009040;28;20085;-65
2023/10/19 02:26:55;;;;;;;2.00;0.68;;;9.40;99.90;;;;;;5007047;28;20442;-66
2023/10/19 02:29:25;;;;;;;0.10;0.10;;;9.40;99.90;;;;;;5008394;28;20053;-65
2023/10/19 02:31:52;;;;;;;2.67;1.15;;;9.40;99.90;;;;;;5009689;28;20555;-66
2023/10/19 02:34:18;;;;;;;0.20;0.20;;;9.40;99.90;;;;;;5003177;28;20125;-66
2023/10/19 02:36:45;;;;;;;0.10;0.10;;;9.40;99.90;;;;;;5005854;28;20129;-66
2023/10/19 02:39:14;;;;;;;0.57;0.57;;;9.40;99.90;;;;;;5021963;28;20042;-65
2023/10/19 02:41:43;;;;;;;0.30;0.30;;;9.40;99.90;;;;;;5001306;28;20718;-66
2023/10/19 02:46:47;;;;;;;0.10;0.10;;;9.40;99.90;;;;;;4996578;28;20050;-66
2023/10/19 02:49:18;;;;;;;0.30;0.28;;;9.40;99.90;;;;;;4995114;28;20054;-66
2023/10/19 02:51:45;;;;;;;0.10;0.10;;;9.50;99.90;;;;;;5000646;28;20073;-66
2023/10/19 02:54:21;;;;;;;0.13;0.13;;;9.50;99.90;;;;;;5004123;28;20080;-65
2023/10/19 02:56:53;;;;;;;0.10;0.10;;;9.50;99.90;;;;;;5006739;28;20041;-65
2023/10/19 02:59:22;;;;;;;0.00;0.00;;;9.50;99.90;;;;;;5004418;28;20394;-65
2023/10/19 03:02:00;;;;;;;0.20;0.20;;;9.50;99.90;;;;;;5006310;28;20046;-65
2023/10/19 03:04:28;;;;;;;2.15;0.60;;;9.50;99.90;;;;;;4998962;28;20445;-65
2023/10/19 03:06:55;;;;;;;0.10;0.10;;;9.40;99.90;;;;;;5007710;28;20137;-65
2023/10/19 03:11:53;;;;;;;0.20;0.20;;;9.40;99.90;;;;;;5001096;28;20047;-65
2023/10/19 03:14:19;;;;;;;0.20;0.20;;;9.40;99.90;;;;;;5002126;28;20068;-65
2023/10/19 03:16:45;;;;;;;0.38;0.38;;;9.40;99.90;;;;;;5004164;28;20109;-65
2023/10/19 03:19:12;;;;;;;0.10;0.10;;;9.40;99.90;;;;;;5015322;28;20085;-65
2023/10/19 03:21:42;;;;;;;0.22;0.22;;;9.40;99.90;;;;;;5003782;28;20056;-65
2023/10/19 03:24:12;;;;;;;0.13;0.13;;;9.40;99.90;;;;;;5001276;28;20467;-65
2023/10/19 03:26:48;;;;;;;0.10;0.10;;;9.40;99.90;;;;;;5003289;28;20037;-65
2023/10/19 03:29:15;;;;;;;0.05;0.05;;;9.50;99.90;;;;;;5003989;28;20058;-65
2023/10/19 03:31:44;;;;;;;0.20;0.20;;;9.50;99.90;;;;;;5005500;28;20045;-65
2023/10/19 03:34:16;;;;;;;0.28;0.28;;;9.40;99.90;;;;;;5001455;28;20514;-65
2023/10/19 03:36:42;;;;;;;0.10;0.10;;;9.50;99.90;;;;;;5001284;28;20077;-65
2023/10/19 03:39:14;;;;;;;0.10;0.10;;;9.50;99.90;;;;;;4993295;28;20521;-65
2023/10/19 03:41:44;;;;;;;0.00;0.00;;;9.50;99.90;;;;;;5002018;28;20049;-65
2023/10/19 03:45:00;;;;;;;0.00;0.00;;;9.50;99.90;;;;;;5007586;28;20077;-65
2023/10/19 03:47:04;;;;;;;0.10;0.10;;;9.50;99.90;;;;;;4988917;28;20060;-65
2023/10/19 03:49:38;;;;;;;0.10;0.10;;;9.50;99.90;;;;;;4999305;28;20042;-65
2023/10/19 03:54:41;;;;;;;0.00;0.00;;;9.50;99.90;;;;;;5000302;28;20053;-65
2023/10/19 03:57:11;;;;;;;0.20;0.20;;;9.50;99.90;;;;;;5001353;28;20386;-65
2023/10/19 03:59:38;;;;;;;0.03;0.03;;;9.60;99.90;;;;;;5006293;28;20092;-65
2023/10/19 04:02:13;;;;;;;0.10;0.10;;;9.60;99.90;;;;;;5005547;28;20078;-65
2023/10/19 04:04:49;;;;;;;0.10;0.10;;;9.50;99.90;;;;;;4996561;28;20093;-65
2023/10/19 04:07:21;;;;;;;0.10;0.10;;;9.50;99.90;;;;;;5006532;28;20042;-65
2023/10/19 04:12:45;;;;;;;1.08;0.98;;;9.60;99.90;;;;;;4945400;28;20047;-66
2023/10/19 04:15:17;;;;;;;0.00;0.00;;;9.60;99.90;;;;;;4998986;28;20486;-65
2023/10/19 04:17:47;;;;;;;0.10;0.10;;;9.60;99.90;;;;;;4995856;28;20042;-65
2023/10/19 04:22:45;;;;;;;0.20;0.20;;;9.60;99.90;;;;;;4996169;28;20057;-65
2023/10/19 04:25:15;;;;;;;0.10;0.10;;;9.60;99.90;;;;;;5008829;28;20477;-65
2023/10/19 04:27:42;;;;;;;1.95;0.82;;;9.60;99.90;;;;;;5005809;28;20490;-65
2023/10/19 04:30:15;;;;;;;0.10;0.10;;;9.70;99.90;;;;;;5001996;28;20054;-65
2023/10/19 04:32:46;;;;;;;0.10;0.10;;;9.70;99.90;;;;;;4999176;28;21641;-65
2023/10/19 04:35:21;;;;;;;1.55;1.45;;;9.70;99.90;;;;;;5002312;28;20063;-65
2023/10/19 04:37:47;;;;;;;0.10;0.10;;;9.60;99.90;;;;;;4997925;28;20082;-66
2023/10/19 04:40:12;;;;;;;0.38;0.38;;;9.60;99.90;;;;;;4995932;28;20700;-66
2023/10/19 04:42:38;;;;;;;0.10;0.10;;;9.70;99.90;;;;;;4998372;28;20043;-66
2023/10/19 04:45:05;;;;;;;0.10;0.10;;;9.70;99.90;;;;;;4999191;28;20121;-66
2023/10/19 04:47:35;;;;;;;0.22;0.22;;;9.70;99.90;;;;;;5000036;28;20076;-66
2023/10/19 04:50:02;;;;;;;0.90;0.90;;;9.60;99.90;;;;;;5000848;28;20120;-67
2023/10/19 04:52:28;;;;;;;0.10;0.10;;;9.70;99.90;;;;;;4994853;28;20157;-66
2023/10/19 04:54:54;;;;;;;0.57;0.57;;;9.70;99.90;;;;;;5008415;28;20049;-66
2023/10/19 04:57:20;;;;;;;0.10;0.10;;;9.70;99.90;;;;;;4997342;28;20058;-66
2023/10/19 04:59:46;;;;;;;0.50;0.50;;;9.70;99.90;;;;;;5009122;28;20045;-66
2023/10/19 05:02:12;;;;;;;0.10;0.10;;;9.80;99.90;;;;;;5001098;28;20065;-66
2023/10/19 05:04:38;;;;;;;0.10;0.10;;;9.80;99.90;;;;;;4998747;28;20038;-66
2023/10/19 05:07:04;;;;;;;0.10;0.10;;;9.80;99.90;;;;;;5002636;28;20045;-66
2023/10/19 05:09:32;;;;;;;0.50;0.50;;;9.80;99.90;;;;;;5009278;28;20064;-66
2023/10/19 05:11:58;;;;;;;0.10;0.10;;;9.80;99.90;;;;;;4998477;28;20173;-66
2023/10/19 05:14:24;;;;;;;0.10;0.10;;;9.80;99.90;;;;;;5007862;28;20134;-66
2023/10/19 05:16:49;;;;;;;0.00;0.00;;;9.90;99.90;;;;;;5003497;28;20049;-65
2023/10/19 05:19:15;;;;;;;0.35;0.35;;;9.80;99.90;;;;;;5002562;28;20046;-66
2023/10/19 05:21:41;;;;;;;0.10;0.10;;;9.90;99.90;;;;;;4996516;28;20046;-65
2023/10/19 05:24:07;;;;;;;0.10;0.10;;;9.90;99.90;;;;;;4999637;28;20061;-65
2023/10/19 05:26:36;;;;;;;0.10;0.10;;;9.80;99.90;;;;;;4997748;28;20085;-65
2023/10/19 05:29:01;;;;;;;0.10;0.10;;;9.80;99.90;;;;;;4999310;28;20089;-65
2023/10/19 05:31:28;;;;;;;0.20;0.20;;;9.80;99.90;;;;;;4981173;28;20151;-65
2023/10/19 05:33:53;;;;;;;0.10;0.10;;;9.80;99.90;;;;;;4999440;28;20057;-65
2023/10/19 05:36:19;;;;;;;3.00;0.73;;;9.80;99.90;;;;;;5002907;28;20053;-65
2023/10/19 05:38:45;;;;;;;0.20;0.20;;;9.80;99.90;;;;;;4999389;28;20045;-65
2023/10/19 05:41:11;;;;;;;0.10;0.10;;;9.90;99.90;;;;;;4994883;28;20049;-66
2023/10/19 05:43:38;;;;;;;0.10;0.10;;;9.80;99.90;;;;;;5003146;28;20108;-66
2023/10/19 05:46:04;;;;;;;0.10;0.10;;;9.80;99.90;;;;;;5004185;28;20072;-66
2023/10/19 05:48:31;;;;;;;0.00;0.00;;;9.80;99.90;;;;;;4997114;28;20055;-66
2023/10/19 05:50:56;;;;;;;0.10;0.10;;;9.90;99.90;;;;;;5007697;28;20046;-66
2023/10/19 05:53:22;;;;;;;0.10;0.10;;;9.90;99.90;;;;;;5010793;28;20161;-66
2023/10/19 05:55:51;;;;;;;0.00;0.00;;;9.90;99.90;;;;;;5011630;28;20049;-66
2023/10/19 05:58:16;;;;;;;0.10;0.10;;;9.90;99.90;;;;;;4994540;28;20486;-66
2023/10/19 06:00:42;;;;;;;0.75;0.75;;;9.90;99.90;;;;;;5007615;28;20043;-66
2023/10/19 06:03:08;;;;;;;0.10;0.10;;;9.90;99.90;;;;;;5007337;28;20088;-66
2023/10/19 06:05:33;;;;;;;0.10;0.10;;;9.90;99.90;;;;;;5009923;28;20458;-66
2023/10/19 06:07:59;;;;;;;0.25;0.25;;;9.90;99.90;;;;;;5001360;28;20046;-66
2023/10/19 06:10:27;;;;;;;0.45;0.40;;;9.90;99.90;;;;;;5008738;28;20149;-66
2023/10/19 06:12:52;;;;;;;1.13;0.75;;;9.90;99.90;;;;;;5001377;28;20561;-66
2023/10/19 06:15:20;;;;;;;0.00;0.00;;;9.90;99.90;;;;;;5005450;28;20029;-66
2023/10/19 06:17:47;;;;;;;0.10;0.10;;;10.00;99.90;;;;;;5001021;28;20474;-66
2023/10/19 06:20:19;;;;;;;0.00;0.00;;;10.00;99.90;;;;;;5003850;28;20045;-66
2023/10/19 06:22:50;;;;;;;0.25;0.25;;;10.00;99.90;;;;;;5017388;28;20065;-67
2023/10/19 06:25:21;;;;;;;0.10;0.10;;;10.00;99.90;;;;;;5012362;28;20037;-67
2023/10/19 06:27:47;;;;;;;0.03;0.03;;;10.00;99.90;;;;;;5006029;28;20771;-67
2023/10/19 06:30:18;;;;;;;0.10;0.10;;;10.00;99.90;;;;;;4999206;28;20502;-67
2023/10/19 06:32:52;;;;;;;0.10;0.10;;;10.00;99.90;;;;;;5005756;28;20050;-66
2023/10/19 06:35:19;;;;;;;0.10;0.10;;;10.00;99.90;;;;;;5002327;28;20097;-66
2023/10/19 06:37:45;;;;;;;0.00;0.00;;;10.10;99.90;;;;;;5007889;28;20041;-66
2023/10/19 06:40:11;;;;;;;0.10;0.10;;;10.10;99.90;;;;;;5002143;28;20053;-66
2023/10/19 06:42:38;;;;;;;0.05;0.05;;;10.10;99.90;;;;;;5000116;28;20498;-66
2023/10/19 06:45:05;;;;;;;0.10;0.10;;;10.10;99.90;;;;;;5008738;28;20050;-66
2023/10/19 06:47:30;;;;;;;0.10;0.10;;;10.10;99.90;;;;;;5000044;28;20045;-66
2023/10/19 06:49:56;;;;;;;0.10;0.10;;;10.10;99.90;;;;;;5003948;28;20046;-66
2023/10/19 06:52:22;;;;;;;0.03;0.03;;;10.10;99.90;;;;;;5009881;28;20042;-66
2023/10/19 06:54:47;;;;;;;0.43;0.43;;;10.10;99.90;;;;;;4997206;28;20050;-66
2023/10/19 06:57:13;;;;;;;0.10;0.10;;;10.10;99.90;;;;;;5005196;28;20479;-66
2023/10/19 06:59:39;;;;;;;0.00;0.00;;;10.20;99.90;;;;;;5011376;28;20068;-66
2023/10/19 07:02:07;;;;;;;0.10;0.10;;;10.20;99.90;;;;;;4996150;28;20042;-65
2023/10/19 07:04:33;;;;;;;0.00;0.00;;;10.20;99.90;;;;;;5003949;28;20600;-66
2023/10/19 07:07:00;;;;;;;0.10;0.10;;;10.20;99.90;;;;;;5010076;28;20153;-66
2023/10/19 07:09:26;;;;;;;0.00;0.00;;;10.20;99.90;;;;;;5009825;28;20123;-66
2023/10/19 07:11:54;;;;;;;0.10;0.10;;;10.20;99.90;;;;;;5009623;28;20453;-66
2023/10/19 07:14:22;;;;;;;0.10;0.10;;;10.20;99.90;;;;;;4998551;28;20503;-66
2023/10/19 07:16:49;;;;;;;0.00;0.00;;;10.20;99.90;;;;;;5010582;28;20569;-66
2023/10/19 07:19:14;;;;;;;0.10;0.10;;;10.30;99.90;;;;;;5008847;28;20053;-66
2023/10/19 07:21:42;;;;;;;0.10;0.10;;;10.30;99.90;;;;;;5006851;28;20048;-66
2023/10/19 07:24:10;;;;;;;0.10;0.10;;;10.30;99.90;;;;;;4992967;28;20491;-66
2023/10/19 07:26:43;;;;;;;0.00;0.00;;;10.20;99.90;;;;;;5016798;28;20116;-66
2023/10/19 07:29:10;;;;;;;0.00;0.00;;;10.20;99.90;;;;;;5008023;28;20069;-66
2023/10/19 07:31:35;;;;;;;0.10;0.10;;;10.20;99.90;;;;;;4996360;28;20069;-65
2023/10/19 07:34:03;;;;;;;0.43;0.43;;;10.20;99.90;;;;;;5006040;28;20759;-66
2023/10/19 07:36:29;;;;;;;0.10;0.10;;;10.20;99.90;;;;;;5008392;28;20056;-66
2023/10/19 07:38:55;;;;;;;0.10;0.10;;;10.30;99.90;;;;;;4996778;28;20050;-66
2023/10/19 07:41:21;;;;;;;0.10;0.10;;;10.20;99.90;;;;;;5007546;28;20050;-66
2023/10/19 07:43:46;;;;;;;0.50;0.28;;;10.30;99.90;;;;;;4999078;28;20061;-66
2023/10/19 07:46:12;;;;;;;0.10;0.10;;;10.30;99.90;;;;;;5003235;28;20045;-66
2023/10/19 07:48:38;;;;;;;0.00;0.00;;;10.30;99.90;;;;;;5005188;28;20057;-66
2023/10/19 07:51:04;;;;;;;0.10;0.10;;;10.30;99.90;;;;;;5010231;28;20559;-66
2023/10/19 07:53:30;;;;;;;0.10;0.10;;;10.30;99.90;;;;;;4998482;28;20053;-66
2023/10/19 07:55:57;;;;;;;0.10;0.10;;;10.30;99.90;;;;;;5011465;28;20557;-66
2023/10/19 07:58:23;;;;;;;0.22;0.22;;;10.40;99.90;;;;;;5003608;28;20058;-66
2023/10/19 08:00:49;;;;;;;0.00;0.00;;;10.40;99.90;;;;;;5007885;28;20049;-66
2023/10/19 08:03:16;;;;;;;0.10;0.10;;;10.40;99.90;;;;;;5008150;28;20367;-66
2023/10/19 08:05:42;;;;;;;0.10;0.10;;;10.40;99.90;;;;;;5006518;28;20049;-66
2023/10/19 08:08:08;;;;;;;0.10;0.10;;;10.50;99.90;;;;;;4997741;28;20405;-66
2023/10/19 08:10:34;;;;;;;0.52;0.30;;;10.50;99.90;;;;;;5002161;28;20073;-66
2023/10/19 08:13:01;;;;;;;0.20;0.20;;;10.50;99.90;;;;;;5004168;28;20084;-66
2023/10/19 08:15:28;;;;;;;0.10;0.10;;;10.50;99.90;;;;;;4996177;28;20137;-66
2023/10/19 08:17:54;;;;;;;0.20;0.20;;;10.50;99.90;;;;;;5004640;28;20047;-66
2023/10/19 08:20:23;;;;;;;0.10;0.10;;;10.60;99.90;;;;;;5003362;28;20469;-66
2023/10/19 08:22:53;;;;;;;0.10;0.10;;;10.60;99.90;;;;;;5003530;28;20064;-66
2023/10/19 08:25:19;;;;;;;0.10;0.10;;;10.60;99.90;;;;;;5008515;28;20050;-66
2023/10/19 08:27:45;;;;;;;0.00;0.00;;;10.60;99.90;;;;;;4998801;28;20046;-66
2023/10/19 08:30:24;;;;;;;0.38;0.28;;;10.60;99.90;;;;;;5005713;28;20406;-65
2023/10/19 08:32:51;;;;;;;0.08;0.08;;;10.60;99.90;;;;;;5003630;28;20544;-66
2023/10/19 08:35:20;;;;;;;0.45;0.45;;;10.60;99.90;;;;;;5000265;28;20045;-66
2023/10/19 08:37:46;;;;;;;0.00;0.00;;;10.60;99.90;;;;;;4999879;28;20165;-66
2023/10/19 08:40:16;;;;;;;0.00;0.00;;;10.60;99.90;;;;;;5006456;28;20068;-66
2023/10/19 08:42:42;;;;;;;0.40;0.40;;;10.60;99.90;;;;;;5007934;28;20033;-66
2023/10/19 08:45:09;;;;;;;0.10;0.10;;;10.60;99.90;;;;;;5001683;28;20050;-66
2023/10/19 08:47:43;;;;;;;0.20;0.20;;;10.70;99.90;;;;;;5006079;28;20053;-66
2023/10/19 08:50:09;;;;;;;0.00;0.00;;;10.70;99.90;;;;;;5006031;28;20065;-66
2023/10/19 08:52:37;;;;;;;0.47;0.47;;;10.70;99.90;;;;;;5006843;28;20034;-66
2023/10/19 08:55:04;;;;;;;0.10;0.10;;;10.70;99.90;;;;;;4997364;28;20050;-66
2023/10/19 08:57:30;;;;;;;0.08;0.08;;;10.70;99.90;;;;;;5006934;28;20058;-66
2023/10/19 08:59:58;;;;;;;1.23;0.70;;;10.80;99.90;;;;;;4999261;28;20058;-66
2023/10/19 09:02:24;;;;;;;0.13;0.13;;;10.80;99.90;;;;;;5006145;28;20046;-66
2023/10/19 09:04:49;;;;;;;0.15;0.15;;;10.80;99.90;;;;;;5005790;28;20050;-66
2023/10/19 09:07:16;;;;;;;0.10;0.10;;;10.80;99.90;;;;;;5009666;28;20045;-66
2023/10/19 09:09:42;;;;;;;2.10;0.57;;;10.80;99.90;;;;;;4999876;28;20168;-66
2023/10/19 09:12:08;;;;;;;0.10;0.10;;;10.90;99.90;;;;;;5008367;28;20057;-66
2023/10/19 09:14:41;;;;;;;0.25;0.15;;;10.80;99.90;;;;;;5005979;28;20161;-66
2023/10/19 09:17:06;;;;;;;0.00;0.00;;;10.90;99.90;;;;;;5008979;28;20045;-66
2023/10/19 09:19:40;;;;;;;0.10;0.10;;;10.90;99.90;;;;;;5007748;28;20060;-66
2023/10/19 09:22:18;;;;;;;0.00;0.00;;;10.90;99.90;;;;;;4997944;28;20390;-66
2023/10/19 09:24:49;;;;;;;0.15;0.15;;;10.90;99.90;;;;;;5006322;28;20478;-66
2023/10/19 09:27:17;;;;;;;0.03;0.03;;;10.80;99.90;;;;;;5002968;28;20157;-65
2023/10/19 09:29:43;;;;;;;0.10;0.10;;;10.90;99.90;;;;;;5010301;28;20054;-66
2023/10/19 09:32:09;;;;;;;0.05;0.05;;;10.80;99.90;;;;;;5006790;28;20058;-66
2023/10/19 09:34:35;;;;;;;0.35;0.35;;;10.90;99.90;;;;;;5006002;28;20038;-65
2023/10/19 09:37:03;;;;;;;0.10;0.10;;;10.90;99.90;;;;;;5010600;28;20125;-66
2023/10/19 09:39:35;;;;;;;0.10;0.10;;;10.90;99.90;;;;;;5011243;28;20057;-66
2023/10/19 09:42:12;;;;;;;0.38;0.32;;;11.00;99.90;;;;;;4999962;28;20049;-66
2023/10/19 09:44:54;;;;;;;0.10;0.10;;;11.00;99.90;;;;;;5008080;28;20505;-66
2023/10/19 09:47:38;;;;;;;0.20;0.20;;;11.00;99.90;;;;;;5011274;28;20371;-66
2023/10/19 09:50:06;;;;;;;0.63;0.63;;;11.00;99.90;;;;;;4999658;28;20479;-66
2023/10/19 09:52:33;;;;;;;0.10;0.10;;;11.00;99.90;;;;;;5005117;28;20038;-66
2023/10/19 09:55:10;;;;;;;0.03;0.03;;;11.10;99.90;;;;;;4999170;28;20097;-66
2023/10/19 09:58:09;;;;;;;0.10;0.10;;;11.10;99.90;;;;;;5006415;28;20065;-66
2023/10/19 10:00:34;;;;;;;0.10;0.10;;;11.10;99.90;;;;;;5003349;28;20092;-66
2023/10/19 10:03:02;;;;;;;0.70;0.57;;;11.10;99.90;;;;;;5000982;28;20061;-66
2023/10/19 10:05:43;;;;;;;0.30;0.30;;;11.20;99.90;;;;;;5007336;28;20041;-66
2023/10/19 10:08:18;;;;;;;0.50;0.50;;;11.20;99.90;;;;;;5017370;28;20537;-65
2023/10/19 10:10:44;;;;;;;0.30;0.30;;;11.20;99.90;;;;;;5005688;28;20056;-66
2023/10/19 10:13:30;;;;;;;0.00;0.00;;;11.20;99.90;;;;;;5010902;28;20046;-66
2023/10/19 10:15:57;;;;;;;0.88;0.40;;;11.30;99.90;;;;;;4998493;28;20050;-66
2023/10/19 10:18:25;;;;;;;0.00;0.00;;;11.30;99.90;;;;;;5008993;28;20030;-66
2023/10/19 10:21:23;;;;;;;0.35;0.35;;;11.40;99.90;;;;;;5003150;28;20144;-66
2023/10/19 10:23:56;;;;;;;0.10;0.10;;;11.40;99.90;;;;;;5006624;28;20634;-66
2023/10/19 10:26:26;;;;;;;0.10;0.10;;;11.40;99.90;;;;;;5000297;28;20034;-65
2023/10/19 10:29:09;;;;;;;0.43;0.43;;;11.50;99.90;;;;;;5006197;28;20065;-66
2023/10/19 10:31:40;;;;;;;0.20;0.20;;;11.40;99.90;;;;;;5008431;28;20042;-66
2023/10/19 10:34:08;;;;;;;0.03;0.03;;;11.50;99.90;;;;;;5007568;28;20663;-66
2023/10/19 10:37:20;;;;;;;0.55;0.55;;;11.60;99.90;;;;;;5011279;28;20437;-66
2023/10/19 10:39:46;;;;;;;0.30;0.30;;;11.50;99.90;;;;;;4994352;28;20192;-66
2023/10/19 10:42:11;;;;;;;0.73;0.73;;;11.60;99.90;;;;;;5011328;28;20923;-66
2023/10/19 10:44:48;;;;;;;0.50;0.50;;;11.60;99.90;;;;;;5012012;28;20042;-66
2023/10/19 10:47:21;;;;;;;2.95;1.88;;;11.60;99.90;;;;;;5004953;28;20053;-66
2023/10/19 10:49:48;;;;;;;0.30;0.28;;;11.70;99.90;;;;;;5007066;28;20042;-66
2023/10/19 10:52:24;;;;;;;0.10;0.10;;;11.70;99.90;;;;;;5011709;28;20135;-66
2023/10/19 10:54:49;;;;;;;0.38;0.38;;;11.70;99.90;;;;;;5007028;28;20076;-66
2023/10/19 10:57:16;;;;;;;0.30;0.30;;;11.70;99.90;;;;;;4997972;28;20046;-66
2023/10/19 10:59:41;;;;;;;0.98;0.77;;;11.80;99.90;;;;;;5011259;28;20423;-66
2023/10/19 11:02:21;;;;;;;0.10;0.10;;;11.90;99.90;;;;;;5010397;28;20080;-65
2023/10/19 11:04:47;;;;;;;0.15;0.10;;;11.90;99.90;;;;;;5000943;28;20046;-66
2023/10/19 11:07:19;;;;;;;0.10;0.10;;;12.10;99.90;;;;;;5007598;28;20383;-66
2023/10/19 11:09:46;;;;;;;0.10;0.10;;;12.20;99.90;;;;;;5002935;28;20054;-66
2023/10/19 11:12:13;;;;;;;1.67;1.08;;;12.20;99.90;;;;;;4997469;28;20394;-66
2023/10/19 11:15:00;;;;;;;0.32;0.32;;;12.30;99.90;;;;;;5005212;28;20065;-66
2023/10/19 11:17:30;;;;;;;0.10;0.10;;;12.40;99.90;;;;;;5009625;28;20050;-66
2023/10/19 11:19:56;;;;;;;0.40;0.40;;;12.40;99.90;;;;;;5009781;28;20054;-66
2023/10/19 11:22:26;;;;;;;0.85;0.85;;;12.40;99.90;;;;;;4999092;28;20039;-66
2023/10/19 11:24:56;;;;;;;0.75;0.75;;;12.40;99.90;;;;;;5010985;28;20077;-66
2023/10/19 11:27:26;;;;;;;0.32;0.32;;;12.40;99.90;;;;;;5007687;28;20046;-66
2023/10/19 11:29:57;;;;;;;0.45;0.45;;;12.50;99.90;;;;;;5006879;28;20409;-65
2023/10/19 11:32:25;;;;;;;0.63;0.63;;;12.50;99.90;;;;;;5001263;28;20050;-65
2023/10/19 11:34:52;;;;;;;1.13;1.02;;;12.50;99.90;;;;;;5005024;28;20056;-65
2023/10/19 11:37:17;;;;;;;0.10;0.10;;;12.50;99.90;;;;;;4995246;28;20049;-66
2023/10/19 11:39:43;;;;;;;1.00;0.95;;;12.50;99.90;;;;;;5005466;28;20057;-66
2023/10/19 11:42:10;;;;;;;0.20;0.20;;;12.60;99.90;;;;;;5006781;28;20046;-65
2023/10/19 11:44:36;;;;;;;0.10;0.10;;;12.60;99.90;;;;;;4996148;28;20483;-65
2023/10/19 11:47:03;;;;;;;0.43;0.43;;;12.70;99.90;;;;;;5005066;28;20125;-66
2023/10/19 11:49:29;;;;;;;1.48;1.23;;;12.80;99.90;;;;;;5008629;28;20053;-66
2023/10/19 11:51:54;;;;;;;0.95;0.95;;;12.80;99.90;;;;;;5005107;28;20054;-66
2023/10/19 11:54:20;;;;;;;0.10;0.10;;;12.80;99.90;;;;;;5001580;28;20072;-65
2023/10/19 11:56:46;;;;;;;0.45;0.45;;;12.90;99.90;;;;;;5006602;28;20506;-65
2023/10/19 11:59:12;;;;;;;0.20;0.20;;;12.80;99.90;;;;;;5007576;28;20118;-65
2023/10/19 12:01:38;;;;;;;0.40;0.40;;;12.70;99.90;;;;;;5004165;28;20092;-65
2023/10/19 12:04:05;;;;;;;0.10;0.10;;;12.70;99.90;;;;;;5008828;28;20049;-65
2023/10/19 12:06:31;;;;;;;0.30;0.22;;;12.60;99.90;;;;;;5005854;28;20047;-65
2023/10/19 12:09:05;;;;;;;0.32;0.32;;;12.50;99.90;;;;;;4998409;28;20048;-65
2023/10/19 12:11:31;;;;;;;0.10;0.10;;;12.50;99.90;;;;;;4997327;28;20069;-65
2023/10/19 12:13:59;;;;;;;0.22;0.22;;;12.50;99.90;;;;;;5003886;28;20045;-66
2023/10/19 12:16:24;;;;;;;0.25;0.25;;;12.50;99.90;;;;;;4997273;28;20178;-66
2023/10/19 12:18:50;;;;;;;0.22;0.22;;;12.40;99.90;;;;;;5003648;28;20058;-66
2023/10/19 12:21:17;;;;;;;1.17;0.95;;;12.40;99.90;;;;;;5004332;28;20393;-65
2023/10/19 12:23:43;;;;;;;0.43;0.17;;;12.40;99.90;;;;;;4999421;28;20073;-65
2023/10/19 12:26:12;;;;;;;0.10;0.10;;;12.40;99.90;;;;;;5012196;28;20046;-65
2023/10/19 12:28:39;;;;;;;0.50;0.50;;;12.40;99.90;;;;;;4999977;28;20054;-66
2023/10/19 12:31:15;;;;;;;0.10;0.10;;;12.40;99.90;;;;;;5009370;28;20042;-65
2023/10/19 12:33:41;;;;;;;0.10;0.10;;;12.40;99.90;;;;;;5002550;28;20042;-65
2023/10/19 12:38:52;;;;;;;2.90;0.55;;;12.40;99.90;;;;;;5005192;28;20060;-66
2023/10/19 12:41:21;;;;;;;0.77;0.77;;;12.30;99.90;;;;;;5004590;28;20034;-65
2023/10/19 12:43:47;;;;;;;0.63;0.63;;;12.40;99.90;;;;;;4998603;28;20053;-65
2023/10/19 12:46:14;;;;;;;0.35;0.35;;;12.30;99.90;;;;;;5001248;28;20145;-66
2023/10/19 12:48:48;;;;;;;0.15;0.15;;;12.30;99.90;;;;;;5002382;28;20046;-65
2023/10/19 12:51:14;;;;;;;0.00;0.00;;;12.30;99.90;;;;;;5009701;28;20053;-65
2023/10/19 12:53:40;;;;;;;0.10;0.10;;;12.30;99.90;;;;;;5010043;28;20053;-65
2023/10/19 12:56:07;;;;;;;0.10;0.10;;;12.20;99.90;;;;;;5020800;28;20442;-65
2023/10/19 12:58:33;;;;;;;0.22;0.22;;;12.30;99.90;;;;;;5001287;28;20425;-65
2023/10/19 13:00:58;;;;;;;0.20;0.20;;;12.20;99.90;;;;;;5002795;28;20049;-65
2023/10/19 13:03:32;;;;;;;0.10;0.10;;;12.20;99.90;;;;;;5002671;28;20053;-65
2023/10/19 13:05:58;;;;;;;0.38;0.38;;;12.10;99.90;;;;;;5003071;28;20442;-66
2023/10/19 13:08:27;;;;;;;0.55;0.55;;;12.10;99.90;;;;;;5017496;28;20037;-66
2023/10/19 13:10:53;;;;;;;0.65;0.65;;;12.00;99.90;;;;;;4997000;28;20159;-66
2023/10/19 13:13:22;;;;;;;1.65;0.80;;;12.00;99.90;;;;;;5024935;28;20446;-66
2023/10/19 13:15:48;;;;;;;0.05;0.05;;;12.00;99.90;;;;;;5001599;28;20180;-65
2023/10/19 13:18:19;;;;;;;0.05;0.05;;;12.00;99.90;;;;;;5003210;28;20050;-66
2023/10/19 13:20:48;;;;;;;0.10;0.10;;;12.00;99.90;;;;;;5006092;28;20106;-66